Time;durP1;ratioP1;P1;durP2;ratioP2;P2;SDS_P1;SDS_P2;PMS_P1;PMS_P2;Temp;Humidity;BMP_temperature;BMP_pressure;BME280_temperature;BME280_humidity;BME280_pressure;Samples;Min_cycle;Max_cycle;Signal;HPM_P1;HPM_P2
2021/11/29 00:02:37;;;;;;;42.20;21.55;;;;;;;1.71;100.00;98609.86;3369078;85;126706;-85
2021/11/29 00:07:39;;;;;;;41.27;19.93;;;;;;;1.69;100.00;98610.80;3382449;85;91553;-85
2021/11/29 00:12:44;;;;;;;36.80;18.27;;;;;;;1.70;100.00;98621.09;3342271;85;2649286;-85
2021/11/29 00:17:45;;;;;;;40.67;19.40;;;;;;;1.71;100.00;98627.48;3372201;84;233532;-85
2021/11/29 00:22:48;;;;;;;38.05;18.10;;;;;;;1.70;100.00;98623.20;3446441;83;98659;-86
2021/11/29 00:27:54;;;;;;;39.57;19.63;;;;;;;1.71;100.00;98628.84;3406935;84;2813285;-85
2021/11/29 00:32:53;;;;;;;39.37;19.37;;;;;;;1.71;100.00;98621.29;3450060;83;99195;-85
2021/11/29 00:37:55;;;;;;;41.17;20.43;;;;;;;1.70;100.00;98625.16;3445855;83;99059;-85
2021/11/29 00:42:58;;;;;;;38.77;19.93;;;;;;;1.70;100.00;98629.22;3400419;84;98997;-84
2021/11/29 00:48:00;;;;;;;41.10;18.95;;;;;;;1.63;100.00;98620.39;3405488;84;3347734;-84
2021/11/29 00:53:02;;;;;;;41.68;20.27;;;;;;;1.67;100.00;98631.28;3430588;84;99121;-85
2021/11/29 00:58:04;;;;;;;43.45;22.22;;;;;;;1.65;100.00;98620.80;3396358;84;2423095;-84
2021/11/29 01:03:06;;;;;;;34.92;18.35;;;;;;;1.64;100.00;98627.37;3427170;84;98978;-85
2021/11/29 01:08:10;;;;;;;38.88;16.37;;;;;;;1.64;100.00;98630.08;3411163;84;133933;-85
2021/11/29 01:13:12;;;;;;;32.53;15.10;;;;;;;1.65;100.00;98637.66;3368895;84;102240;-85
2021/11/29 01:18:13;;;;;;;29.30;15.33;;;;;;;1.68;100.00;98640.98;3314346;87;196273;-85
2021/11/29 01:23:19;;;;;;;27.42;13.68;;;;;;;1.69;100.00;98645.28;3353637;86;99104;-85
2021/11/29 01:28:25;;;;;;;28.07;14.10;;;;;;;1.70;100.00;98645.48;3382195;85;182564;-84
2021/11/29 01:33:25;;;;;;;29.77;14.95;;;;;;;1.70;100.00;98633.28;3304450;87;98509;-85
2021/11/29 01:38:27;;;;;;;28.23;13.63;;;;;;;1.70;100.00;98630.58;3382815;85;127710;-85
2021/11/29 01:43:28;;;;;;;29.18;13.43;;;;;;;1.74;100.00;98647.66;3368680;85;98571;-85
2021/11/29 01:48:30;;;;;;;26.23;13.95;;;;;;;1.72;100.00;98639.13;3373566;86;97889;-85
2021/11/29 01:53:34;;;;;;;26.87;15.48;;;;;;;1.72;100.00;98640.47;3295847;87;124186;-85
2021/11/29 01:58:39;;;;;;;24.57;11.63;;;;;;;1.72;100.00;98643.98;3330458;86;130941;-84
2021/11/29 02:03:43;;;;;;;25.37;12.20;;;;;;;1.72;100.00;98640.47;3326309;87;99458;-84
2021/11/29 02:08:45;;;;;;;27.32;12.78;;;;;;;1.73;100.00;98637.97;3330077;87;145147;-84
2021/11/29 02:13:46;;;;;;;22.42;11.45;;;;;;;1.75;100.00;98639.77;3300581;87;99166;-84
2021/11/29 02:18:48;;;;;;;22.93;11.97;;;;;;;1.75;100.00;98643.24;3339442;86;97759;-84
2021/11/29 02:23:54;;;;;;;25.97;12.97;;;;;;;1.77;100.00;98640.97;3333235;86;216297;-84
2021/11/29 02:29:03;;;;;;;24.47;13.03;;;;;;;1.78;100.00;98640.38;3320067;86;193913;-84
2021/11/29 02:34:21;;;;;;;23.77;12.25;;;;;;;1.78;100.00;98640.38;3352570;86;171670;-84
2021/11/29 02:39:28;;;;;;;23.60;11.83;;;;;;;1.79;100.00;98641.94;3438672;84;99094;-85
2021/11/29 02:44:27;;;;;;;24.15;11.05;;;;;;;1.80;100.00;98642.18;3446947;84;99251;-84
2021/11/29 02:49:28;;;;;;;21.60;11.57;;;;;;;1.77;100.00;98645.04;3453261;84;136963;-84
2021/11/29 02:54:33;;;;;;;19.02;9.70;;;;;;;1.76;100.00;98651.58;3427427;81;2187916;-85
2021/11/29 02:59:38;;;;;;;16.60;8.38;;;;;;;1.75;100.00;98641.89;3415800;84;403101;-84
2021/11/29 03:04:40;;;;;;;18.48;8.75;;;;;;;1.76;100.00;98646.16;3438098;84;99079;-84
2021/11/29 03:09:44;;;;;;;17.60;8.18;;;;;;;1.75;100.00;98643.24;3455625;83;97977;-85
2021/11/29 03:14:46;;;;;;;15.80;7.58;;;;;;;1.74;100.00;98644.39;3432379;84;98119;-85
2021/11/29 03:19:47;;;;;;;15.77;7.53;;;;;;;1.72;100.00;98639.91;3340589;86;26197;-85
2021/11/29 03:24:52;;;;;;;21.10;9.70;;;;;;;1.72;100.00;98637.77;3322596;86;119576;-85
2021/11/29 03:29:57;;;;;;;23.43;10.20;;;;;;;1.71;100.00;98634.26;3315379;87;1531435;-85
2021/11/29 03:34:58;;;;;;;21.90;10.40;;;;;;;1.74;100.00;98640.33;3391869;85;98929;-85
2021/11/29 03:40:04;;;;;;;25.07;13.03;;;;;;;1.73;100.00;98637.41;3424287;84;2283400;-85
2021/11/29 03:45:14;;;;;;;24.93;12.67;;;;;;;1.69;100.00;98637.15;3419068;84;2024487;-85
2021/11/29 03:50:20;;;;;;;23.15;10.93;;;;;;;1.70;100.00;98641.42;3370515;84;4446616;-85
2021/11/29 03:55:28;;;;;;;26.30;12.28;;;;;;;1.69;100.00;98644.69;3407477;84;364322;-85
2021/11/29 04:00:29;;;;;;;26.20;10.90;;;;;;;1.66;100.00;98648.14;3424906;84;98317;-84
2021/11/29 04:05:53;;;;;;;26.23;12.18;;;;;;;1.67;100.00;98648.34;3382323;84;4581049;-85
2021/11/29 04:10:58;;;;;;;28.70;12.93;;;;;;;1.65;100.00;98656.04;3439208;83;240900;-85
2021/11/29 04:16:06;;;;;;;27.50;12.63;;;;;;;1.65;100.00;98650.62;3414540;84;98463;-85
2021/11/29 04:21:14;;;;;;;27.30;12.20;;;;;;;1.64;100.00;98659.14;3433808;84;168138;-85
2021/11/29 04:26:20;;;;;;;28.90;12.93;;;;;;;1.62;100.00;98660.05;3437465;83;210071;-85
2021/11/29 04:31:24;;;;;;;27.55;12.90;;;;;;;1.62;100.00;98674.96;3449527;84;27349;-85
2021/11/29 04:36:42;;;;;;;26.40;11.90;;;;;;;1.60;100.00;98675.90;3416439;83;2634098;-85
2021/11/29 04:41:54;;;;;;;26.45;12.30;;;;;;;1.59;100.00;98672.39;3410112;84;99159;-85
2021/11/29 04:46:55;;;;;;;27.45;13.08;;;;;;;1.56;100.00;98675.84;3387747;84;5057787;-85
2021/11/29 04:51:58;;;;;;;25.57;11.83;;;;;;;1.55;100.00;98682.97;3420917;84;161629;-85
2021/11/29 04:57:04;;;;;;;27.77;12.80;;;;;;;1.55;100.00;98685.68;3448319;84;98736;-85
2021/11/29 05:02:06;;;;;;;27.13;11.97;;;;;;;1.53;100.00;98686.03;3439164;84;98744;-86
2021/11/29 05:07:08;;;;;;;27.77;13.37;;;;;;;1.52;100.00;98691.81;3416604;83;1466885;-85
2021/11/29 05:12:17;;;;;;;26.82;11.53;;;;;;;1.50;100.00;98694.11;3400873;84;99297;-84
2021/11/29 05:17:18;;;;;;;24.60;11.53;;;;;;;1.48;100.00;98696.40;3429381;84;283654;-85
2021/11/29 05:22:21;;;;;;;29.70;12.13;;;;;;;1.44;100.00;98699.05;3404685;84;99109;-85
2021/11/29 05:27:23;;;;;;;33.63;15.60;;;;;;;1.42;100.00;98704.61;3434706;84;98838;-86
2021/11/29 05:32:27;;;;;;;27.77;13.55;;;;;;;1.38;100.00;98702.40;3438744;84;339783;-85
2021/11/29 05:37:31;;;;;;;33.83;14.70;;;;;;;1.36;100.00;98706.02;3407853;84;98690;-86
2021/11/29 05:42:37;;;;;;;29.27;13.90;;;;;;;1.34;100.00;98707.75;3431460;84;98756;-86
2021/11/29 05:47:38;;;;;;;33.10;16.37;;;;;;;1.33;100.00;98712.17;3430216;84;199173;-86
2021/11/29 05:52:41;;;;;;;30.07;13.93;;;;;;;1.30;100.00;98715.02;3399221;84;133695;-86
2021/11/29 05:57:44;;;;;;;31.23;14.60;;;;;;;1.30;100.00;98712.31;3431996;84;99052;-88
2021/11/29 06:02:46;;;;;;;31.33;14.97;;;;;;;1.29;100.00;98716.16;3418788;84;99006;-87
2021/11/29 06:07:47;;;;;;;32.83;15.20;;;;;;;1.31;100.00;98728.02;3426956;84;34410;-86
2021/11/29 06:12:49;;;;;;;34.00;15.80;;;;;;;1.30;100.00;98729.13;3425613;84;189794;-86
2021/11/29 06:17:50;;;;;;;31.47;13.90;;;;;;;1.31;100.00;98732.84;3426935;84;148387;-85
2021/11/29 06:22:56;;;;;;;33.58;17.27;;;;;;;1.31;100.00;98739.61;3424475;84;99490;-86
2021/11/29 06:27:57;;;;;;;40.83;17.23;;;;;;;1.33;100.00;98742.77;3438124;84;99463;-85
2021/11/29 06:32:58;;;;;;;36.42;16.48;;;;;;;1.33;100.00;98741.41;3428956;84;98920;-87
2021/11/29 06:38:04;;;;;;;39.63;17.73;;;;;;;1.33;100.00;98749.55;3426823;84;33321;-87
2021/11/29 06:43:05;;;;;;;40.43;18.93;;;;;;;1.36;100.00;98759.66;3417832;84;98881;-86
2021/11/29 06:48:06;;;;;;;44.80;20.17;;;;;;;1.35;100.00;98756.73;3435537;84;98692;-86
2021/11/29 06:53:07;;;;;;;43.40;19.47;;;;;;;1.36;100.00;98765.08;3429134;84;99284;-86
2021/11/29 06:58:08;;;;;;;37.77;17.60;;;;;;;1.37;100.00;98768.58;3436558;84;99198;-85
2021/11/29 07:03:09;;;;;;;43.00;18.67;;;;;;;1.37;100.00;98768.58;3435508;84;98951;-86
2021/11/29 07:08:11;;;;;;;44.00;17.77;;;;;;;1.36;100.00;98776.47;3416511;84;33407;-86
2021/11/29 07:13:13;;;;;;;44.07;18.73;;;;;;;1.36;100.00;98781.34;3431336;84;98927;-85
2021/11/29 07:18:15;;;;;;;47.50;18.70;;;;;;;1.40;100.00;98781.41;3426094;84;97863;-85
2021/11/29 07:23:16;;;;;;;48.63;19.85;;;;;;;1.39;100.00;98779.84;3428874;84;98905;-85
2021/11/29 07:28:17;;;;;;;48.63;20.50;;;;;;;1.42;100.00;98781.85;3446951;84;98085;-86
2021/11/29 07:33:18;;;;;;;43.80;21.17;;;;;;;1.39;100.00;98792.83;3421944;84;99040;-86
2021/11/29 07:38:19;;;;;;;47.20;18.90;;;;;;;1.40;100.00;98797.11;3371972;84;33205;-88
2021/11/29 07:43:20;;;;;;;44.57;19.83;;;;;;;1.40;100.00;98800.38;3343712;86;98970;-87
2021/11/29 07:48:22;;;;;;;47.00;21.37;;;;;;;1.39;100.00;98806.94;3350345;86;97933;-87
2021/11/29 07:53:24;;;;;;;50.47;20.27;;;;;;;1.41;100.00;98825.77;3345081;86;98838;-87
2021/11/29 07:58:25;;;;;;;39.93;17.27;;;;;;;1.43;100.00;98821.36;3311986;87;98273;-87
2021/11/29 08:03:26;;;;;;;40.13;18.50;;;;;;;1.43;100.00;98826.19;3319962;86;98954;-88
2021/11/29 08:08:27;;;;;;;46.57;19.33;;;;;;;1.44;100.00;98833.20;3337870;86;33202;-86
2021/11/29 08:13:28;;;;;;;44.73;18.63;;;;;;;1.47;100.00;98833.04;3318762;86;98894;-86
2021/11/29 08:18:30;;;;;;;57.80;23.10;;;;;;;1.48;100.00;98835.98;3324347;87;98671;-87
2021/11/29 08:23:31;;;;;;;49.90;21.43;;;;;;;1.49;100.00;98838.91;3327926;86;98887;-86
2021/11/29 08:28:33;;;;;;;53.73;21.17;;;;;;;1.51;100.00;98845.55;3444887;84;98902;-87
2021/11/29 08:33:34;;;;;;;48.92;21.12;;;;;;;1.52;100.00;98848.47;3420411;84;98964;-86
2021/11/29 08:38:35;;;;;;;51.40;22.30;;;;;;;1.51;100.00;98850.17;3435111;84;33223;-86
2021/11/29 08:43:38;;;;;;;51.50;21.00;;;;;;;1.52;100.00;98859.31;3440676;84;99024;-86
2021/11/29 08:48:39;;;;;;;42.10;19.40;;;;;;;1.55;100.00;98857.26;3442149;84;98762;-86
2021/11/29 08:53:40;;;;;;;40.50;17.47;;;;;;;1.55;100.00;98850.48;3422143;84;98853;-88
2021/11/29 08:58:42;;;;;;;41.10;18.73;;;;;;;1.56;100.00;98850.69;3438911;84;99308;-86
2021/11/29 09:03:43;;;;;;;42.47;19.27;;;;;;;1.57;100.00;98859.59;3357735;85;98944;-87
2021/11/29 09:08:45;;;;;;;39.13;16.07;;;;;;;1.58;100.00;98861.95;3332153;87;98093;-87
2021/11/29 09:13:47;;;;;;;36.17;17.33;;;;;;;1.56;100.00;98864.24;3433313;84;99007;-86
2021/11/29 09:18:48;;;;;;;40.23;16.90;;;;;;;1.58;100.00;98866.02;3441581;84;98644;-87
2021/11/29 09:23:50;;;;;;;36.13;16.93;;;;;;;1.63;100.00;98869.80;3427863;84;99187;-86
2021/11/29 09:28:51;;;;;;;36.20;15.73;;;;;;;1.61;100.00;98866.67;3448872;84;98921;-86
2021/11/29 09:33:52;;;;;;;34.47;16.33;;;;;;;1.64;100.00;98863.23;3431476;84;98893;-87
2021/11/29 09:38:53;;;;;;;37.23;16.10;;;;;;;1.66;100.00;98858.27;3439166;84;98756;-86
2021/11/29 09:43:54;;;;;;;35.43;15.27;;;;;;;1.69;100.00;98854.06;3437488;84;99009;-86
2021/11/29 09:48:56;;;;;;;28.03;13.23;;;;;;;1.73;100.00;98850.83;3436254;84;98721;-85
2021/11/29 09:53:57;;;;;;;28.63;13.07;;;;;;;1.74;100.00;98857.81;3429407;84;99023;-87
2021/11/29 09:58:59;;;;;;;24.07;11.20;;;;;;;1.76;100.00;98863.69;3362485;85;97965;-87
2021/11/29 10:04:02;;;;;;;24.43;12.73;;;;;;;1.77;100.00;98852.48;3349914;86;98988;-87
2021/11/29 10:09:08;;;;;;;30.53;16.27;;;;;;;1.79;100.00;98860.24;3329918;87;98916;-87
2021/11/29 10:14:12;;;;;;;34.80;18.13;;;;;;;1.82;100.00;98859.55;3353748;85;98971;-86
2021/11/29 10:19:25;;;;;;;36.37;16.73;;;;;;;1.82;100.00;98864.41;3368560;85;98831;-86
2021/11/29 10:24:28;;;;;;;33.87;16.87;;;;;;;1.87;100.00;98860.62;3335633;86;118001;-86
2021/11/29 10:29:29;;;;;;;33.43;16.97;;;;;;;1.88;100.00;98857.55;3307152;86;98991;-86
2021/11/29 10:34:32;;;;;;;28.97;13.47;;;;;;;1.90;100.00;98857.97;3441036;83;98906;-86
2021/11/29 10:39:43;;;;;;;25.10;12.90;;;;;;;1.94;100.00;98856.68;3428336;84;99267;-85
2021/11/29 10:44:47;;;;;;;28.87;13.37;;;;;;;1.96;100.00;98854.38;3410162;84;99231;-86
2021/11/29 10:49:52;;;;;;;27.63;13.60;;;;;;;1.96;100.00;98847.60;3442149;84;43499;-86
2021/11/29 10:54:56;;;;;;;25.93;12.90;;;;;;;2.01;100.00;98839.17;3436167;84;99154;-85
2021/11/29 10:59:58;;;;;;;28.63;15.00;;;;;;;2.03;100.00;98833.61;3431682;84;99238;-85
2021/11/29 11:05:16;;;;;;;27.93;12.47;;;;;;;2.12;100.00;98843.67;3443735;84;98877;-86
2021/11/29 11:10:15;;;;;;;27.80;14.40;;;;;;;2.15;100.00;98832.67;3438723;84;98837;-84
2021/11/29 11:15:19;;;;;;;28.40;14.35;;;;;;;2.18;100.00;98838.75;3436026;84;99247;-84
2021/11/29 11:20:21;;;;;;;29.63;14.33;;;;;;;2.18;100.00;98839.52;3437053;84;33574;-81
2021/11/29 11:25:26;;;;;;;31.53;14.90;;;;;;;2.18;100.00;98844.95;3443735;84;173520;-83
2021/11/29 11:30:30;;;;;;;30.33;14.37;;;;;;;2.25;100.00;98832.85;3450098;84;99132;-83
2021/11/29 11:35:36;;;;;;;29.13;14.63;;;;;;;2.24;100.00;98840.79;3438691;84;98431;-84
2021/11/29 11:40:41;;;;;;;26.97;13.50;;;;;;;2.27;100.00;98848.78;3444073;84;98954;-84
2021/11/29 11:45:46;;;;;;;27.17;13.07;;;;;;;2.27;100.00;98842.00;3433867;84;99072;-84
2021/11/29 11:50:52;;;;;;;30.33;14.87;;;;;;;2.25;100.00;98846.42;3406999;84;98926;-84
2021/11/29 11:55:53;;;;;;;32.70;15.63;;;;;;;2.33;100.00;98847.34;3428720;84;98473;-84
2021/11/29 12:01:02;;;;;;;32.25;15.20;;;;;;;2.28;100.00;98850.34;3412368;84;1734311;-84
2021/11/29 12:06:07;;;;;;;28.93;13.00;;;;;;;2.23;99.88;98855.51;3429069;84;99487;-85
2021/11/29 12:11:30;;;;;;;27.70;12.80;;;;;;;2.22;100.00;98858.58;3431044;84;98791;-84
2021/11/29 12:16:45;;;;;;;26.47;12.73;;;;;;;2.17;99.96;98855.59;3438861;84;106318;-85
2021/11/29 12:21:46;;;;;;;26.53;12.47;;;;;;;2.13;99.86;98856.09;3423725;84;99040;-85
2021/11/29 12:26:55;;;;;;;29.53;14.17;;;;;;;2.13;100.00;98861.52;3441015;84;98662;-85
2021/11/29 12:32:07;;;;;;;26.77;14.00;;;;;;;2.14;99.91;98852.23;3425174;84;98881;-85
2021/11/29 12:37:18;;;;;;;28.63;14.57;;;;;;;2.14;100.00;98856.30;3413058;84;98562;-84
2021/11/29 12:42:30;;;;;;;30.80;15.68;;;;;;;2.09;100.00;98854.46;3433196;84;98887;-84
2021/11/29 12:47:44;;;;;;;33.30;17.53;;;;;;;2.12;100.00;98861.87;3441740;84;98029;-85
2021/11/29 12:52:46;;;;;;;38.13;18.90;;;;;;;2.03;100.00;98863.45;3422685;84;99386;-84
2021/11/29 12:58:16;;;;;;;35.03;15.87;;;;;;;2.01;100.00;98860.88;3448728;84;98885;-84
2021/11/29 13:03:33;;;;;;;31.20;15.77;;;;;;;1.93;100.00;98862.70;3434906;84;98976;-85
2021/11/29 13:08:38;;;;;;;31.57;16.07;;;;;;;1.88;100.00;98873.83;3439598;84;47151;-85
2021/11/29 13:14:03;;;;;;;33.97;14.73;;;;;;;1.84;100.00;98878.95;3443573;83;99042;-85
2021/11/29 13:19:21;;;;;;;32.30;15.20;;;;;;;1.75;100.00;98881.10;3438414;84;98490;-84
2021/11/29 13:24:39;;;;;;;28.10;14.47;;;;;;;1.75;100.00;98877.03;3421117;84;99311;-84
2021/11/29 13:29:55;;;;;;;39.40;18.40;;;;;;;1.65;100.00;98884.38;3431824;85;99764;-84
2021/11/29 13:35:04;;;;;;;33.47;13.53;;;;;;;1.60;100.00;98885.41;3423453;84;98838;-84
2021/11/29 13:40:14;;;;;;;30.17;14.47;;;;;;;1.55;100.00;98892.50;3423814;85;98865;-84
2021/11/29 13:45:25;;;;;;;31.42;14.58;;;;;;;1.53;100.00;98892.64;3426602;84;99337;-84
2021/11/29 13:50:31;;;;;;;35.03;14.73;;;;;;;1.54;100.00;98888.20;3433162;84;33442;-84
2021/11/29 13:55:37;;;;;;;31.87;14.70;;;;;;;1.55;100.00;98894.41;3439833;84;98659;-84
2021/11/29 14:00:48;;;;;;;36.03;17.57;;;;;;;1.54;100.00;98895.56;3443141;84;98698;-84
2021/11/29 14:05:53;;;;;;;36.98;15.98;;;;;;;1.52;100.00;98900.53;3364053;85;98849;-84
2021/11/29 14:11:07;;;;;;;34.27;16.23;;;;;;;1.48;100.00;98910.53;3356629;85;98788;-84
2021/11/29 14:16:21;;;;;;;35.08;16.93;;;;;;;1.46;100.00;98916.30;3387660;85;98838;-84
2021/11/29 14:21:31;;;;;;;33.17;15.13;;;;;;;1.45;100.00;98916.64;3370085;85;98795;-85
2021/11/29 14:26:45;;;;;;;33.60;14.93;;;;;;;1.45;100.00;98920.16;3334359;86;33222;-84
2021/11/29 14:31:50;;;;;;;32.42;14.68;;;;;;;1.44;100.00;98934.84;3323503;86;98962;-84
2021/11/29 14:37:02;;;;;;;37.03;17.37;;;;;;;1.45;100.00;98932.91;3353648;85;99238;-85
2021/11/29 14:42:07;;;;;;;34.10;15.70;;;;;;;1.41;100.00;98932.03;3311855;86;99370;-85
2021/11/29 14:47:18;;;;;;;34.53;15.97;;;;;;;1.34;100.00;98935.39;3307019;86;99371;-83
2021/11/29 14:52:21;;;;;;;35.67;17.63;;;;;;;1.33;100.00;98937.08;3354656;85;98876;-85
2021/11/29 14:57:24;;;;;;;33.73;17.17;;;;;;;1.32;100.00;98949.84;3336947;86;98943;-84
2021/11/29 15:02:25;;;;;;;36.27;16.73;;;;;;;1.31;100.00;98956.98;3428320;84;98931;-84
2021/11/29 15:07:31;;;;;;;42.00;17.90;;;;;;;1.32;100.00;98967.45;3451712;84;98804;-84
2021/11/29 15:12:37;;;;;;;35.30;17.70;;;;;;;1.32;100.00;98969.39;3433417;84;99054;-84
2021/11/29 15:17:46;;;;;;;31.12;14.93;;;;;;;1.32;100.00;98976.94;3422980;84;99206;-83
2021/11/29 15:22:57;;;;;;;27.75;14.20;;;;;;;1.34;100.00;98977.95;3424249;83;99403;-83
2021/11/29 15:28:20;;;;;;;34.03;16.70;;;;;;;1.38;100.00;98992.38;3369555;85;98829;-84
2021/11/29 15:33:32;;;;;;;30.40;16.00;;;;;;;1.39;100.00;98988.52;3341655;85;99243;-84
2021/11/29 15:38:38;;;;;;;34.10;17.93;;;;;;;1.41;100.00;98988.95;3423536;84;33318;-83
2021/11/29 15:43:52;;;;;;;31.45;17.15;;;;;;;1.42;100.00;98998.67;3422729;84;98741;-85
2021/11/29 15:48:59;;;;;;;31.17;15.87;;;;;;;1.41;100.00;98997.88;3446851;84;99247;-84
2021/11/29 15:54:02;;;;;;;;;;;;;;;1.41;100.00;99005.20;3445074;83;98871;-84
2021/11/29 15:59:08;;;;;;;32.57;16.80;;;;;;;1.45;100.00;99012.86;3458826;84;85274;-84
2021/11/29 16:04:10;;;;;;;28.98;14.73;;;;;;;1.47;100.00;99018.16;3429227;83;99267;-84
2021/11/29 16:09:13;;;;;;;33.57;16.50;;;;;;;1.48;100.00;99019.72;3440491;84;99167;-85
2021/11/29 16:14:14;;;;;;;29.40;14.73;;;;;;;1.50;100.00;99020.17;3435636;84;98917;-85
2021/11/29 16:19:15;;;;;;;30.70;16.37;;;;;;;1.52;100.00;99026.58;3435583;84;99227;-83
2021/11/29 16:24:17;;;;;;;30.77;17.40;;;;;;;1.50;100.00;99026.95;3428780;84;98957;-84
2021/11/29 16:29:19;;;;;;;27.87;15.00;;;;;;;1.49;100.00;99032.13;3443755;84;99270;-84
2021/11/29 16:34:20;;;;;;;38.20;19.37;;;;;;;1.50;100.00;99019.38;3442690;84;99315;-85
2021/11/29 16:39:22;;;;;;;41.80;20.17;;;;;;;1.50;100.00;99040.51;3438218;84;98810;-84
2021/11/29 16:44:24;;;;;;;39.13;18.63;;;;;;;1.51;100.00;99039.92;3423061;84;98808;-84
2021/11/29 16:49:25;;;;;;;37.73;20.37;;;;;;;1.54;100.00;99040.59;3418223;84;99125;-85
2021/11/29 16:54:26;;;;;;;37.50;18.03;;;;;;;1.57;100.00;99043.94;3424516;84;99175;-84
2021/11/29 16:59:27;;;;;;;31.30;17.67;;;;;;;1.58;100.00;99041.47;3433576;84;99296;-84
2021/11/29 17:04:29;;;;;;;29.27;15.67;;;;;;;1.51;100.00;99032.59;3425276;84;99353;-84
2021/11/29 17:09:29;;;;;;;30.47;16.97;;;;;;;1.67;100.00;99062.39;3435973;83;99517;-84
2021/11/29 17:14:33;;;;;;;29.83;16.53;;;;;;;1.69;100.00;99064.20;3405186;84;98619;-84
2021/11/29 17:19:34;;;;;;;26.70;15.15;;;;;;;1.73;100.00;99078.05;3445903;84;98045;-85
2021/11/29 17:24:37;;;;;;;23.50;12.07;;;;;;;1.77;100.00;99078.94;3425665;84;99117;-85
2021/11/29 17:29:38;;;;;;;24.57;13.07;;;;;;;1.82;100.00;99080.58;3432993;84;98928;-84
2021/11/29 17:34:41;;;;;;;28.47;13.87;;;;;;;1.88;100.00;99098.96;3436381;84;99299;-83
2021/11/29 17:44:54;;;;;;;27.50;13.60;;;;;;;1.97;100.00;99104.20;3400165;84;98855;-91
2021/11/29 17:49:55;;;;;;;30.63;16.43;;;;;;;2.01;100.00;99107.20;3439539;84;98462;-90
2021/11/29 17:54:56;;;;;;;27.62;13.83;;;;;;;2.05;100.00;99118.94;3436390;84;98703;-89
2021/11/29 17:59:57;;;;;;;27.20;15.50;;;;;;;2.09;100.00;99119.02;3437888;84;98829;-83
2021/11/29 18:05:07;;;;;;;23.67;14.33;;;;;;;2.09;100.00;99121.73;3416029;83;99066;-84
2021/11/29 18:15:19;;;;;;;22.20;11.22;;;;;;;2.19;100.00;99130.09;3425412;84;98876;-84
2021/11/29 18:20:20;;;;;;;23.83;11.97;;;;;;;2.22;100.00;99134.84;3437593;84;33200;-85
2021/11/29 18:25:23;;;;;;;23.73;12.17;;;;;;;2.23;100.00;99141.83;3436262;84;99088;-84
2021/11/29 18:30:28;;;;;;;22.53;10.43;;;;;;;2.25;100.00;99140.89;3421796;84;353672;-84
2021/11/29 18:35:29;;;;;;;21.70;11.60;;;;;;;2.29;100.00;99138.30;3424722;84;99618;-85
2021/11/29 18:40:33;;;;;;;20.70;10.27;;;;;;;2.30;100.00;99140.63;3433339;84;98931;-84
2021/11/29 18:45:40;;;;;;;19.20;10.37;;;;;;;2.33;100.00;99150.00;3414074;84;98844;-85
2021/11/29 18:50:43;;;;;;;20.57;9.77;;;;;;;2.34;100.00;99156.99;3419907;84;57850;-83
2021/11/29 18:55:44;;;;;;;15.03;8.17;;;;;;;2.33;100.00;99158.14;3422575;84;98642;-84
2021/11/29 19:00:50;;;;;;;16.43;9.40;;;;;;;2.35;100.00;99161.31;3429219;84;98984;-84
2021/11/29 19:05:52;;;;;;;22.20;12.78;;;;;;;2.33;100.00;99156.78;3431839;84;99148;-84
2021/11/29 19:10:53;;;;;;;16.53;10.03;;;;;;;2.33;100.00;99156.78;3454002;84;99471;-84
2021/11/29 19:15:54;;;;;;;16.33;8.13;;;;;;;2.29;100.00;99159.42;3423385;84;99565;-84
2021/11/29 19:20:55;;;;;;;17.77;8.10;;;;;;;2.26;100.00;99170.20;3430256;84;39749;-84
2021/11/29 19:25:57;;;;;;;18.17;8.93;;;;;;;2.22;100.00;99189.12;3428590;83;98425;-83
2021/11/29 19:30:59;;;;;;;19.15;9.73;;;;;;;2.18;100.00;99197.73;3427684;84;98502;-83
2021/11/29 19:36:01;;;;;;;14.37;8.33;;;;;;;2.16;100.00;99199.22;3430758;84;99311;-83
2021/11/29 19:46:05;;;;;;;14.30;6.47;;;;;;;2.12;100.00;99214.63;3428048;84;99283;-84
2021/11/29 19:51:06;;;;;;;15.20;6.60;;;;;;;2.12;100.00;99225.48;3440824;84;99306;-85
2021/11/29 19:56:08;;;;;;;18.37;8.00;;;;;;;2.08;100.00;99212.41;3429575;84;98225;-83
2021/11/29 20:01:11;;;;;;;21.17;10.97;;;;;;;2.02;100.00;99215.17;3429682;84;99165;-84
2021/11/29 20:06:19;;;;;;;19.20;9.10;;;;;;;1.98;100.00;99219.12;3420462;84;99653;-83
2021/11/29 20:11:19;;;;;;;13.97;7.63;;;;;;;1.95;100.00;99223.91;3429921;83;99402;-84
2021/11/29 20:16:22;;;;;;;13.20;6.70;;;;;;;1.91;100.00;99226.33;3417706;84;98630;-83
2021/11/29 20:21:24;;;;;;;14.90;8.23;;;;;;;1.87;100.00;99237.05;3428687;84;98815;-84
2021/11/29 20:26:26;;;;;;;14.10;7.33;;;;;;;1.83;100.00;99238.91;3431908;84;39641;-83
2021/11/29 20:31:27;;;;;;;12.43;6.80;;;;;;;1.81;100.00;99234.38;3361143;85;99048;-83
2021/11/29 20:36:32;;;;;;;15.27;7.13;;;;;;;1.80;100.00;99238.23;3347179;86;98925;-83
2021/11/29 20:41:34;;;;;;;15.67;8.10;;;;;;;1.78;100.00;99244.59;3353490;85;98970;-83
2021/11/29 20:46:35;;;;;;;16.47;7.50;;;;;;;1.77;100.00;99243.02;3326944;87;99386;-83
2021/11/29 20:51:36;;;;;;;14.40;7.30;;;;;;;1.77;100.00;99248.99;3312720;86;99291;-83
2021/11/29 20:56:37;;;;;;;13.27;8.00;;;;;;;1.78;100.00;99249.21;3304408;87;33347;-82
2021/11/29 21:01:39;;;;;;;16.07;7.67;;;;;;;1.75;100.00;99245.85;3318613;86;98637;-82
2021/11/29 21:06:40;;;;;;;13.43;6.47;;;;;;;1.74;100.00;99255.90;3353885;86;98578;-82
2021/11/29 21:11:42;;;;;;;15.90;6.87;;;;;;;1.74;100.00;99269.46;3331894;86;98975;-83
2021/11/29 21:16:44;;;;;;;14.20;6.60;;;;;;;1.73;100.00;99264.38;3350054;86;98707;-83
2021/11/29 21:21:45;;;;;;;12.27;5.70;;;;;;;1.67;100.00;99267.12;3433589;84;98795;-82
2021/11/29 21:26:47;;;;;;;15.33;6.33;;;;;;;1.60;100.00;99269.64;3433708;84;33170;-83
2021/11/29 21:31:47;;;;;;;14.78;6.72;;;;;;;1.53;100.00;99275.65;3427016;84;98948;-83
2021/11/29 21:36:49;;;;;;;12.30;5.97;;;;;;;1.45;100.00;99275.80;3431012;84;98551;-83
2021/11/29 21:41:50;;;;;;;14.13;6.80;;;;;;;1.38;100.00;99275.02;3429494;84;98635;-83
2021/11/29 21:46:51;;;;;;;17.00;6.53;;;;;;;1.36;100.00;99283.27;3430515;85;98764;-83
2021/11/29 21:51:52;;;;;;;13.43;6.50;;;;;;;1.35;100.00;99287.12;3404736;84;98491;-81
2021/11/29 21:56:53;;;;;;;13.90;6.57;;;;;;;1.34;100.00;99290.41;3441371;84;35270;-82
2021/11/29 22:01:59;;;;;;;14.00;6.47;;;;;;;1.36;100.00;99291.41;3436633;84;98713;-82
2021/11/29 22:07:00;;;;;;;14.70;6.40;;;;;;;1.36;100.00;99304.95;3438956;84;98734;-81
2021/11/29 22:12:02;;;;;;;13.73;6.23;;;;;;;1.37;100.00;99302.48;3429140;84;98731;-82
2021/11/29 22:17:04;;;;;;;16.13;7.47;;;;;;;1.38;100.00;99312.97;3421890;84;99125;-81
2021/11/29 22:22:05;;;;;;;12.58;6.62;;;;;;;1.41;100.00;99300.65;3428298;84;99061;-82
2021/11/29 22:27:06;;;;;;;17.03;7.20;;;;;;;1.43;100.00;99307.31;3370285;86;98757;-81
2021/11/29 22:32:08;;;;;;;17.40;7.70;;;;;;;1.47;100.00;99308.76;3349490;85;98471;-81
2021/11/29 22:37:10;;;;;;;20.33;7.87;;;;;;;1.49;100.00;99307.28;3342004;86;99076;-81
2021/11/29 22:42:11;;;;;;;19.63;9.27;;;;;;;1.51;100.00;99313.73;3340019;86;99243;-80
2021/11/29 22:47:13;;;;;;;18.30;8.30;;;;;;;1.53;100.00;99319.03;3353619;86;99017;-81
2021/11/29 22:52:15;;;;;;;21.37;8.95;;;;;;;1.54;100.00;99317.89;3347034;86;98820;-81
2021/11/29 22:57:16;;;;;;;20.30;9.23;;;;;;;1.57;100.00;99319.92;3345348;86;98755;-81
2021/11/29 23:02:17;;;;;;;19.70;10.20;;;;;;;1.61;100.00;99317.31;3343832;86;98735;-81
2021/11/29 23:07:18;;;;;;;23.70;10.97;;;;;;;1.64;100.00;99331.55;3296326;87;99220;-81
2021/11/29 23:12:19;;;;;;;21.05;10.82;;;;;;;1.67;100.00;99329.48;3346428;86;99277;-81
2021/11/29 23:17:20;;;;;;;18.97;8.93;;;;;;;1.67;100.00;99328.94;3334331;86;98833;-81
2021/11/29 23:22:21;;;;;;;18.67;9.50;;;;;;;1.70;100.00;99331.52;3333922;86;98755;-81
2021/11/29 23:27:22;;;;;;;21.57;11.07;;;;;;;1.71;100.00;99329.80;3339226;86;98761;-81
2021/11/29 23:32:23;;;;;;;20.67;10.50;;;;;;;1.73;100.00;99329.46;3317039;86;98907;-81